createdAt,value
2023-01-26T00:00:04.594Z,24.23
2023-01-26T00:01:10.259Z,23.97
2023-01-26T00:02:11.617Z,24.27
2023-01-26T00:03:12.938Z,24.37
2023-01-26T00:04:14.321Z,24.13
2023-01-26T00:05:15.703Z,23.90
2023-01-26T00:06:18.073Z,23.37
2023-01-26T00:07:19.393Z,24.17
2023-01-26T00:08:20.681Z,23.90
2023-01-26T00:09:22.066Z,23.47
2023-01-26T00:10:23.356Z,24.10
2023-01-26T00:11:29.418Z,23.93
2023-01-26T00:12:30.707Z,22.83
2023-01-26T00:13:32.502Z,23.63
2023-01-26T00:14:49.719Z,24.73
2023-01-26T00:15:51.231Z,24.23
2023-01-26T00:16:53.761Z,23.83
2023-01-26T00:17:55.153Z,25.13
2023-01-26T00:18:56.495Z,24.97
2023-01-26T00:19:58.389Z,24.00
2023-01-26T00:21:00.492Z,24.87
2023-01-26T00:22:01.834Z,23.47
2023-01-26T00:23:03.199Z,23.73
2023-01-26T00:24:04.776Z,23.63
2023-01-26T00:25:06.446Z,24.07
2023-01-26T00:26:09.075Z,23.27
2023-01-26T00:27:12.125Z,23.07
2023-01-26T00:28:13.529Z,23.93
2023-01-26T00:29:14.879Z,24.33
2023-01-26T00:30:16.443Z,23.20
2023-01-26T00:31:19.377Z,24.53
2023-01-26T00:32:20.733Z,24.03
2023-01-26T00:33:22.702Z,22.70
2023-01-26T00:34:24.077Z,24.83
2023-01-26T00:35:25.598Z,23.63
2023-01-26T00:36:28.361Z,24.50
2023-01-26T00:37:29.997Z,24.73
2023-01-26T00:38:31.443Z,23.53
2023-01-26T00:39:32.807Z,24.37
2023-01-26T00:40:35.736Z,24.77
2023-01-26T00:41:55.596Z,24.23
2023-01-26T00:42:57.590Z,24.53
2023-01-26T00:43:59.404Z,23.87
2023-01-26T00:45:00.741Z,24.97
2023-01-26T00:46:02.064Z,24.73
2023-01-26T00:47:03.385Z,23.27
2023-01-26T00:48:04.780Z,23.83
2023-01-26T00:49:06.195Z,25.50
2023-01-26T00:50:08.487Z,24.70
2023-01-26T00:51:09.971Z,24.83
2023-01-26T00:52:12.111Z,24.00
2023-01-26T00:53:13.486Z,23.70
2023-01-26T00:54:14.878Z,24.33
2023-01-26T00:55:16.238Z,24.63
2023-01-26T00:56:17.662Z,23.37
2023-01-26T00:57:18.982Z,24.57
2023-01-26T00:58:20.311Z,25.57
2023-01-26T00:59:21.649Z,24.67
2023-01-26T01:00:23.026Z,24.53
2023-01-26T01:01:24.741Z,25.07
2023-01-26T01:02:26.066Z,26.00
2023-01-26T01:03:27.385Z,25.53
2023-01-26T01:04:30.245Z,25.63
2023-01-26T01:05:32.208Z,24.33
2023-01-26T01:06:33.561Z,24.23
2023-01-26T01:07:34.905Z,23.67
2023-01-26T01:08:36.245Z,25.63
2023-01-26T01:09:37.701Z,24.53
2023-01-26T01:10:40.108Z,25.47
2023-01-26T01:11:42.957Z,25.60
2023-01-26T01:12:44.303Z,24.90
2023-01-26T01:13:45.633Z,25.67
2023-01-26T01:14:47.988Z,24.77
2023-01-26T01:15:49.359Z,24.43
2023-01-26T01:16:50.766Z,25.67
2023-01-26T01:17:52.226Z,24.77
2023-01-26T01:18:54.648Z,25.73
2023-01-26T01:19:56.139Z,24.60
2023-01-26T01:20:57.631Z,26.33
2023-01-26T01:21:59.196Z,24.63
2023-01-26T01:23:00.549Z,25.87
2023-01-26T01:24:02.539Z,24.30
2023-01-26T01:25:04.249Z,24.77
2023-01-26T01:26:06.262Z,24.27
2023-01-26T01:27:08.097Z,25.17
2023-01-26T01:28:09.466Z,23.87
2023-01-26T01:29:12.802Z,25.60
2023-01-26T01:30:14.517Z,23.70
2023-01-26T01:31:16.566Z,25.47
2023-01-26T01:32:18.774Z,24.53
2023-01-26T01:33:21.923Z,24.30
2023-01-26T01:34:23.293Z,24.93
2023-01-26T01:35:24.600Z,23.53
2023-01-26T01:36:26.074Z,24.97
2023-01-26T01:37:28.635Z,24.80
2023-01-26T01:38:30.239Z,25.40
2023-01-26T01:39:31.586Z,23.70
2023-01-26T01:40:32.939Z,23.63
2023-01-26T01:41:34.307Z,24.23
2023-01-26T01:42:35.790Z,24.33
2023-01-26T01:43:37.412Z,24.77
2023-01-26T01:44:38.852Z,23.30
2023-01-26T01:45:44.367Z,23.17
2023-01-26T01:46:51.304Z,23.07
2023-01-26T01:47:57.042Z,25.00
2023-01-26T01:49:06.893Z,25.43
2023-01-26T01:50:12.511Z,24.17
2023-01-26T01:51:16.846Z,23.63
2023-01-26T01:52:21.886Z,24.50
2023-01-26T01:53:37.559Z,24.23
2023-01-26T01:54:41.753Z,23.53
2023-01-26T01:55:43.140Z,23.37
2023-01-26T01:56:47.027Z,23.87
2023-01-26T01:57:52.416Z,24.33
2023-01-26T01:58:54.616Z,23.57
2023-01-26T01:59:59.727Z,22.73
2023-01-26T02:01:01.175Z,23.47
2023-01-26T02:02:02.833Z,22.97
2023-01-26T02:03:20.939Z,24.03
2023-01-26T02:04:23.209Z,23.20
2023-01-26T02:05:26.719Z,24.93
2023-01-26T02:06:34.126Z,24.20
2023-01-26T02:07:36.316Z,22.87
2023-01-26T02:08:39.395Z,25.07
2023-01-26T02:10:00.449Z,24.80
2023-01-26T02:11:04.447Z,24.10
2023-01-26T02:12:07.181Z,24.30
2023-01-26T02:13:08.937Z,23.63
2023-01-26T02:14:11.585Z,24.20
2023-01-26T02:15:13.187Z,24.83
2023-01-26T02:16:14.980Z,24.43
2023-01-26T02:17:16.930Z,24.50
2023-01-26T02:18:18.935Z,25.00
2023-01-26T02:19:43.582Z,25.03
2023-01-26T02:20:46.818Z,24.50
2023-01-26T02:21:51.483Z,24.33
2023-01-26T02:23:09.369Z,24.17
2023-01-26T02:24:14.812Z,23.60
2023-01-26T02:25:30.003Z,25.17
2023-01-26T02:26:35.606Z,24.13
2023-01-26T02:27:37.231Z,24.03
2023-01-26T02:28:39.076Z,23.20
2023-01-26T02:29:41.863Z,24.30
2023-01-26T02:30:43.395Z,23.17
2023-01-26T02:31:45.775Z,23.27
2023-01-26T02:32:47.215Z,24.93
2023-01-26T02:33:49.026Z,24.47
2023-01-26T02:34:55.881Z,23.57
2023-01-26T02:35:59.341Z,25.23
2023-01-26T02:37:00.687Z,24.30
2023-01-26T02:38:02.538Z,25.03
2023-01-26T02:39:20.633Z,25.70
2023-01-26T02:40:29.970Z,26.13
2023-01-26T02:41:50.224Z,27.23
2023-01-26T02:42:54.230Z,26.23
2023-01-26T02:43:55.620Z,26.47
2023-01-26T02:44:57.087Z,24.53
2023-01-26T02:45:58.485Z,25.90
2023-01-26T02:46:59.840Z,26.37
2023-01-26T02:48:04.724Z,25.90
2023-01-26T02:49:24.711Z,24.60
2023-01-26T02:50:26.613Z,24.43
2023-01-26T02:51:27.952Z,25.07
2023-01-26T02:52:31.571Z,24.77
2023-01-26T02:53:37.699Z,25.37
2023-01-26T02:54:57.440Z,24.13
2023-01-26T02:55:58.897Z,25.97
2023-01-26T02:57:00.553Z,24.17
2023-01-26T02:58:03.710Z,23.37
2023-01-26T02:59:07.123Z,26.63
2023-01-26T03:00:11.755Z,23.43
2023-01-26T03:01:13.395Z,24.70
2023-01-26T03:02:21.476Z,24.90
2023-01-26T03:03:24.133Z,24.47
2023-01-26T03:04:25.670Z,26.00
2023-01-26T03:05:28.386Z,26.23
2023-01-26T03:06:30.419Z,24.03
2023-01-26T03:07:31.958Z,24.07
2023-01-26T03:08:33.513Z,22.93
2023-01-26T03:09:34.843Z,22.63
2023-01-26T03:10:36.173Z,21.37
2023-01-26T03:11:43.499Z,21.53
2023-01-26T03:12:45.434Z,19.80
2023-01-26T03:13:46.793Z,19.70
2023-01-26T03:15:08.096Z,19.93
2023-01-26T03:16:10.257Z,21.13
2023-01-26T03:17:11.766Z,20.40
2023-01-26T03:18:35.863Z,20.80
2023-01-26T03:19:55.978Z,20.30
2023-01-26T03:21:17.413Z,20.70
2023-01-26T03:22:37.166Z,20.97
2023-01-26T03:23:57.318Z,20.83
2023-01-26T03:25:19.098Z,21.77
2023-01-26T03:26:43.920Z,21.93
2023-01-26T03:27:47.334Z,21.70
2023-01-26T03:28:49.458Z,22.27
2023-01-26T03:29:51.452Z,23.07
2023-01-26T03:30:55.532Z,22.80
2023-01-26T03:31:57.248Z,25.07
2023-01-26T03:32:59.465Z,23.57
2023-01-26T03:34:01.422Z,22.67
2023-01-26T03:35:03.931Z,23.30
2023-01-26T03:36:05.659Z,23.00
2023-01-26T03:37:07.060Z,23.13
2023-01-26T03:38:16.278Z,22.77
2023-01-26T03:39:40.539Z,22.07
2023-01-26T03:41:00.697Z,21.53
2023-01-26T03:42:20.680Z,21.70
2023-01-26T03:43:40.437Z,22.70
2023-01-26T03:45:00.165Z,22.50
2023-01-26T03:46:23.535Z,22.53
2023-01-26T03:47:43.330Z,22.00
2023-01-26T03:49:03.498Z,22.23
2023-01-26T03:50:23.715Z,22.23
2023-01-26T03:51:43.848Z,22.30
2023-01-26T03:53:03.976Z,21.43
2023-01-26T03:54:24.132Z,22.20
2023-01-26T03:55:44.232Z,21.63
2023-01-26T03:56:46.513Z,21.43
2023-01-26T03:57:49.270Z,21.57
2023-01-26T03:58:52.336Z,21.90
2023-01-26T03:59:56.029Z,21.87
2023-01-26T04:01:00.950Z,22.67
2023-01-26T04:02:23.275Z,22.30
2023-01-26T04:03:43.527Z,19.83
2023-01-26T04:05:03.314Z,19.63
2023-01-26T04:06:25.734Z,20.87
2023-01-26T04:07:46.065Z,21.70
2023-01-26T04:08:47.746Z,20.93
2023-01-26T04:09:49.093Z,21.13
2023-01-26T04:10:54.553Z,21.03
2023-01-26T04:11:56.172Z,21.10
2023-01-26T04:13:17.003Z,19.53
2023-01-26T04:14:50.443Z,19.93
2023-01-26T04:16:15.271Z,19.07
2023-01-26T04:17:35.500Z,18.47
2023-01-26T04:18:55.627Z,19.97
2023-01-26T04:20:15.871Z,18.77
2023-01-26T04:21:31.463Z,18.87
2023-01-26T04:22:40.247Z,18.23
2023-01-26T04:23:41.660Z,18.50
2023-01-26T04:24:42.958Z,16.93
2023-01-26T04:25:44.384Z,18.13
2023-01-26T04:26:45.859Z,18.33
2023-01-26T04:27:54.680Z,18.00
2023-01-26T04:28:56.619Z,18.97
2023-01-26T04:29:57.945Z,19.10
2023-01-26T04:30:59.373Z,18.67
2023-01-26T04:32:00.740Z,20.50
2023-01-26T04:33:02.584Z,18.47
2023-01-26T04:34:04.768Z,19.23
2023-01-26T04:35:06.887Z,17.97
2023-01-26T04:36:09.766Z,18.73
2023-01-26T04:37:15.409Z,19.10
2023-01-26T04:38:21.272Z,18.33
2023-01-26T04:39:22.882Z,19.20
2023-01-26T04:40:28.529Z,17.90
2023-01-26T04:41:30.378Z,18.13
2023-01-26T04:42:38.077Z,16.93
2023-01-26T04:43:40.511Z,17.67
2023-01-26T04:44:42.346Z,18.10
2023-01-26T04:45:44.574Z,18.17
2023-01-26T04:46:48.130Z,17.80
2023-01-26T04:47:50.810Z,18.20
2023-01-26T04:48:52.581Z,17.47
2023-01-26T04:49:54.026Z,16.70
2023-01-26T04:51:00.026Z,17.37
2023-01-26T04:52:01.362Z,17.80
2023-01-26T04:53:03.706Z,18.57
2023-01-26T04:54:06.357Z,17.90
2023-01-26T04:55:11.250Z,17.83
2023-01-26T04:56:19.181Z,17.57
2023-01-26T04:57:23.131Z,17.43
2023-01-26T04:58:25.420Z,16.77
2023-01-26T04:59:26.810Z,15.90
2023-01-26T05:00:32.607Z,16.40
2023-01-26T05:01:35.380Z,16.80
2023-01-26T05:02:40.337Z,17.57
2023-01-26T05:03:42.911Z,17.03
2023-01-26T05:04:45.674Z,17.37
2023-01-26T05:05:51.196Z,17.20
2023-01-26T05:06:53.757Z,18.80
2023-01-26T05:07:57.919Z,17.27
2023-01-26T05:09:01.547Z,17.13
2023-01-26T05:10:04.569Z,16.37
2023-01-26T05:11:28.884Z,16.73
2023-01-26T05:12:38.171Z,16.80
2023-01-26T05:14:05.814Z,16.83
2023-01-26T05:15:17.824Z,17.43
2023-01-26T05:16:54.647Z,16.80
2023-01-26T05:18:05.496Z,17.00
2023-01-26T05:19:32.750Z,16.10
2023-01-26T05:21:03.361Z,15.53
2023-01-26T05:22:12.933Z,15.80
2023-01-26T05:23:19.669Z,14.70
2023-01-26T05:24:39.652Z,13.60
2023-01-26T05:25:54.764Z,14.13
2023-01-26T05:27:16.109Z,14.27
2023-01-26T05:28:18.532Z,13.60
2023-01-26T05:29:19.918Z,14.50
2023-01-26T05:30:21.456Z,15.00
2023-01-26T05:31:24.394Z,14.67
2023-01-26T05:32:27.835Z,14.63
2023-01-26T05:33:30.795Z,15.07
2023-01-26T05:34:33.802Z,13.90
2023-01-26T05:35:35.515Z,13.83
2023-01-26T05:36:38.311Z,14.20
2023-01-26T05:37:42.291Z,14.43
2023-01-26T05:38:44.342Z,15.30
2023-01-26T05:39:46.569Z,13.97
2023-01-26T05:40:48.162Z,14.60
2023-01-26T05:41:50.050Z,15.03
2023-01-26T05:43:12.953Z,13.97
2023-01-26T05:44:46.668Z,12.93
2023-01-26T05:45:49.742Z,14.90
2023-01-26T05:46:52.281Z,14.43
2023-01-26T05:47:53.749Z,15.03
2023-01-26T05:48:55.081Z,14.67
2023-01-26T05:49:56.871Z,14.37
2023-01-26T05:51:03.942Z,16.23
2023-01-26T05:52:13.288Z,15.83
2023-01-26T05:53:15.261Z,15.47
2023-01-26T05:54:16.805Z,14.77
2023-01-26T05:55:18.309Z,15.47
2023-01-26T05:56:19.637Z,14.47
2023-01-26T05:57:25.840Z,15.20
2023-01-26T05:58:31.842Z,14.77
2023-01-26T05:59:33.537Z,14.63
2023-01-26T06:00:35.216Z,14.47
2023-01-26T06:01:42.858Z,14.47
2023-01-26T06:02:48.249Z,14.20
2023-01-26T06:03:50.755Z,14.53
2023-01-26T06:04:52.084Z,13.77
2023-01-26T06:05:54.799Z,14.90
2023-01-26T06:07:04.253Z,13.93
2023-01-26T06:08:07.578Z,14.53
2023-01-26T06:09:25.182Z,15.43
2023-01-26T06:10:47.982Z,15.00
2023-01-26T06:11:58.124Z,16.73
2023-01-26T06:13:05.995Z,16.43
2023-01-26T06:14:13.358Z,14.90
2023-01-26T06:15:14.746Z,15.07
2023-01-26T06:16:19.216Z,13.90
2023-01-26T06:17:20.698Z,12.60
2023-01-26T06:18:26.181Z,13.03
2023-01-26T06:19:29.793Z,12.63
2023-01-26T06:20:33.812Z,14.03
2023-01-26T06:21:36.137Z,13.40
2023-01-26T06:22:37.623Z,13.13
2023-01-26T06:23:38.973Z,13.90
2023-01-26T06:24:40.602Z,14.33
2023-01-26T06:25:42.066Z,14.23
2023-01-26T06:26:43.415Z,14.67
2023-01-26T06:27:45.478Z,14.63
2023-01-26T06:29:00.304Z,13.63
2023-01-26T06:30:05.380Z,14.00
2023-01-26T06:31:07.694Z,13.53
2023-01-26T06:32:12.377Z,13.87
2023-01-26T06:33:13.770Z,14.17
2023-01-26T06:34:15.312Z,15.93
2023-01-26T06:35:17.139Z,17.47
2023-01-26T06:36:18.596Z,14.23
2023-01-26T06:37:21.880Z,13.93
2023-01-26T06:38:25.570Z,14.40
2023-01-26T06:39:28.244Z,15.93
2023-01-26T06:40:29.721Z,16.27
2023-01-26T06:41:31.133Z,15.10
2023-01-26T06:42:32.486Z,14.63
2023-01-26T06:43:35.020Z,15.30
2023-01-26T06:44:36.508Z,15.23
2023-01-26T06:45:37.916Z,15.43
2023-01-26T06:46:39.815Z,12.77
2023-01-26T06:47:47.195Z,12.90
2023-01-26T06:48:48.730Z,12.67
2023-01-26T06:49:50.617Z,11.77
2023-01-26T06:50:52.394Z,11.43
2023-01-26T06:52:13.102Z,11.50
2023-01-26T06:53:33.641Z,12.00
2023-01-26T06:54:52.583Z,12.00
2023-01-26T06:56:08.221Z,11.90
2023-01-26T06:57:21.705Z,11.77
2023-01-26T06:58:41.778Z,12.23
2023-01-26T07:00:10.511Z,11.97
2023-01-26T07:01:35.729Z,12.47
2023-01-26T07:02:37.155Z,11.07
2023-01-26T07:03:38.457Z,12.00
2023-01-26T07:04:39.771Z,12.20
2023-01-26T07:05:41.101Z,11.60
2023-01-26T07:06:43.577Z,12.10
2023-01-26T07:07:44.887Z,11.47
2023-01-26T07:08:46.191Z,11.00
2023-01-26T07:09:47.660Z,10.40
2023-01-26T07:10:51.867Z,10.50
2023-01-26T07:11:53.189Z,12.13
2023-01-26T07:12:54.535Z,11.50
2023-01-26T07:13:56.260Z,10.87
2023-01-26T07:14:57.562Z,11.50
2023-01-26T07:16:06.592Z,10.97
2023-01-26T07:17:07.950Z,12.50
2023-01-26T07:18:09.336Z,12.07
2023-01-26T07:19:10.799Z,13.63
2023-01-26T07:20:12.536Z,11.90
2023-01-26T07:21:15.358Z,11.50
2023-01-26T07:22:16.661Z,10.53
2023-01-26T07:23:18.016Z,11.40
2023-01-26T07:24:21.741Z,11.30
2023-01-26T07:25:23.182Z,10.80
2023-01-26T07:26:24.534Z,11.60
2023-01-26T07:27:26.022Z,15.03
2023-01-26T07:28:27.404Z,14.77
2023-01-26T07:29:28.762Z,13.17
2023-01-26T07:30:30.165Z,13.43
2023-01-26T07:31:31.566Z,12.83
2023-01-26T07:32:32.966Z,14.03
2023-01-26T07:33:35.050Z,12.13
2023-01-26T07:34:36.619Z,12.53
2023-01-26T07:35:37.955Z,11.40
2023-01-26T07:36:39.287Z,10.83
2023-01-26T07:37:40.637Z,12.37
2023-01-26T07:38:41.993Z,10.07
2023-01-26T07:39:43.520Z,10.60
2023-01-26T07:40:45.440Z,10.70
2023-01-26T07:41:46.922Z,10.60
2023-01-26T07:43:06.537Z,11.00
2023-01-26T07:44:28.441Z,11.07
2023-01-26T07:45:30.699Z,11.30
2023-01-26T07:46:32.177Z,11.40
2023-01-26T07:47:33.589Z,10.60
2023-01-26T07:48:34.966Z,10.17
2023-01-26T07:49:36.283Z,10.53
2023-01-26T07:50:37.604Z,8.93
2023-01-26T07:51:39.661Z,9.17
2023-01-26T07:52:41.084Z,9.77
2023-01-26T07:53:43.524Z,9.50
2023-01-26T07:54:44.921Z,8.33
2023-01-26T07:55:46.662Z,8.73
2023-01-26T07:56:54.028Z,8.03
2023-01-26T07:57:55.357Z,7.93
2023-01-26T07:58:56.990Z,7.77
2023-01-26T07:59:58.289Z,8.50
2023-01-26T08:01:10.596Z,8.67
2023-01-26T08:02:11.957Z,8.17
2023-01-26T08:03:13.839Z,8.20
2023-01-26T08:04:15.183Z,8.10
2023-01-26T08:05:16.635Z,8.13
2023-01-26T08:06:18.501Z,7.90
2023-01-26T08:07:20.160Z,7.53
2023-01-26T08:08:21.515Z,8.53
2023-01-26T08:09:22.906Z,8.07
2023-01-26T08:10:24.313Z,8.27
2023-01-26T08:11:26.825Z,8.30
2023-01-26T08:12:28.168Z,7.67
2023-01-26T08:13:35.715Z,8.57
2023-01-26T08:14:46.406Z,7.70
2023-01-26T08:15:48.277Z,7.67
2023-01-26T08:16:49.659Z,7.37
2023-01-26T08:17:53.495Z,6.90
2023-01-26T08:18:55.750Z,7.57
2023-01-26T08:19:57.126Z,7.10
2023-01-26T08:20:58.625Z,7.60
2023-01-26T08:22:00.072Z,7.90
2023-01-26T08:23:01.543Z,7.90
2023-01-26T08:24:03.455Z,8.43
2023-01-26T08:25:05.042Z,9.03
2023-01-26T08:26:10.502Z,9.10
2023-01-26T08:27:11.859Z,9.37
2023-01-26T08:28:13.521Z,9.70
2023-01-26T08:29:14.905Z,9.10
2023-01-26T08:30:16.491Z,10.20
2023-01-26T08:31:19.913Z,9.90
2023-01-26T08:32:21.479Z,10.97
2023-01-26T08:33:23.828Z,11.27
2023-01-26T08:34:26.511Z,11.33
2023-01-26T08:35:28.257Z,10.63
2023-01-26T08:36:29.872Z,11.63
2023-01-26T08:37:31.487Z,11.57
2023-01-26T08:38:33.615Z,11.60
2023-01-26T08:39:34.940Z,11.17
2023-01-26T08:40:36.283Z,11.60
2023-01-26T08:41:38.216Z,11.67
2023-01-26T08:42:39.538Z,10.47
2023-01-26T08:43:40.873Z,12.00
2023-01-26T08:44:42.182Z,10.93
2023-01-26T08:45:46.659Z,11.40
2023-01-26T08:46:47.968Z,10.80
2023-01-26T08:47:50.470Z,10.40
2023-01-26T08:48:52.252Z,10.43
2023-01-26T08:49:53.562Z,10.30
2023-01-26T08:50:55.906Z,10.60
2023-01-26T08:51:57.239Z,9.50
2023-01-26T08:52:58.637Z,9.50
2023-01-26T08:54:00.040Z,9.30
2023-01-26T08:55:02.104Z,9.57
2023-01-26T08:56:04.794Z,9.80
2023-01-26T08:57:06.572Z,9.53
2023-01-26T08:58:07.913Z,9.60
2023-01-26T08:59:09.353Z,9.10
2023-01-26T09:00:11.455Z,10.10
2023-01-26T09:01:14.581Z,9.60
2023-01-26T09:02:16.035Z,9.73
2023-01-26T09:03:17.678Z,10.00
2023-01-26T09:04:19.071Z,9.10
2023-01-26T09:05:20.387Z,8.93
2023-01-26T09:06:22.104Z,9.40
2023-01-26T09:07:23.469Z,8.37
2023-01-26T09:08:24.768Z,8.53
2023-01-26T09:09:26.230Z,9.27
2023-01-26T09:10:27.936Z,8.53
2023-01-26T09:11:29.280Z,8.77
2023-01-26T09:12:30.575Z,8.67
2023-01-26T09:13:31.885Z,8.70
2023-01-26T09:14:33.210Z,8.37
2023-01-26T09:15:37.125Z,9.10
2023-01-26T09:16:38.555Z,8.40
2023-01-26T09:17:39.937Z,8.27
2023-01-26T09:18:41.233Z,7.40
2023-01-26T09:19:44.895Z,8.00
2023-01-26T09:20:46.435Z,7.30
2023-01-26T09:21:53.753Z,7.30
2023-01-26T09:22:55.153Z,6.90
2023-01-26T09:23:57.146Z,7.47
2023-01-26T09:24:58.628Z,7.70
2023-01-26T09:26:00.327Z,7.07
2023-01-26T09:27:01.729Z,9.37
2023-01-26T09:28:05.538Z,10.63
2023-01-26T09:29:06.986Z,7.87
2023-01-26T09:30:08.864Z,7.50
2023-01-26T09:31:11.376Z,7.33
2023-01-26T09:32:12.903Z,7.70
2023-01-26T09:33:14.212Z,8.07
2023-01-26T09:34:15.555Z,8.63
2023-01-26T09:35:17.416Z,8.00
2023-01-26T09:36:19.133Z,8.53
2023-01-26T09:37:20.574Z,8.03
2023-01-26T09:38:21.939Z,8.57
2023-01-26T09:39:23.237Z,8.90
2023-01-26T09:40:43.290Z,7.90
2023-01-26T09:42:03.346Z,7.70
2023-01-26T09:43:08.867Z,8.43
2023-01-26T09:44:19.734Z,7.30
2023-01-26T09:45:25.493Z,7.40
2023-01-26T09:46:33.084Z,7.67
2023-01-26T09:47:53.160Z,8.03
2023-01-26T09:49:15.726Z,7.37
2023-01-26T09:50:19.627Z,7.33
2023-01-26T09:51:28.372Z,7.20
2023-01-26T09:52:32.384Z,8.43
2023-01-26T09:53:36.743Z,9.07
2023-01-26T09:54:50.030Z,8.00
2023-01-26T09:55:51.920Z,8.23
2023-01-26T09:56:54.746Z,8.23
2023-01-26T09:58:18.010Z,9.80
2023-01-26T09:59:19.328Z,12.50
2023-01-26T10:00:20.884Z,8.80
2023-01-26T10:01:29.649Z,7.90
2023-01-26T10:02:55.299Z,7.93
2023-01-26T10:04:05.649Z,7.50
2023-01-26T10:05:14.557Z,7.27
2023-01-26T10:06:21.568Z,7.80
2023-01-26T10:07:45.125Z,7.13
2023-01-26T10:08:46.524Z,7.53
2023-01-26T10:09:49.593Z,7.37
2023-01-26T10:10:55.141Z,7.43
2023-01-26T10:11:58.039Z,7.40
2023-01-26T10:12:59.626Z,7.43
2023-01-26T10:14:04.471Z,7.53
2023-01-26T10:15:18.884Z,7.50
2023-01-26T10:16:24.286Z,7.33
2023-01-26T10:17:30.186Z,8.30
2023-01-26T10:18:33.019Z,7.47
2023-01-26T10:19:50.092Z,7.97
2023-01-26T10:20:53.586Z,8.03
2023-01-26T10:21:55.287Z,8.63
2023-01-26T10:23:16.875Z,8.07
2023-01-26T10:24:20.775Z,8.53
2023-01-26T10:25:41.556Z,7.83
2023-01-26T10:26:43.404Z,7.53
2023-01-26T10:27:45.937Z,6.63
2023-01-26T10:28:48.859Z,6.83
2023-01-26T10:29:50.227Z,6.47
2023-01-26T10:30:51.889Z,7.17
2023-01-26T10:31:55.165Z,6.97
2023-01-26T10:32:56.844Z,7.07
2023-01-26T10:34:15.436Z,7.63
2023-01-26T10:35:22.057Z,6.70
2023-01-26T10:36:24.053Z,7.50
2023-01-26T10:37:29.195Z,9.17
2023-01-26T10:38:33.609Z,6.73
2023-01-26T10:39:34.998Z,7.13
2023-01-26T10:40:44.709Z,6.57
2023-01-26T10:41:59.581Z,7.20
2023-01-26T10:43:01.184Z,6.80
2023-01-26T10:44:02.695Z,6.63
2023-01-26T10:45:24.372Z,6.77
2023-01-26T10:46:30.861Z,7.20
2023-01-26T10:47:32.622Z,6.23
2023-01-26T10:48:34.434Z,7.20
2023-01-26T10:49:35.920Z,6.23
2023-01-26T10:50:37.628Z,6.23
2023-01-26T10:51:39.927Z,6.37
2023-01-26T10:52:56.502Z,6.37
2023-01-26T10:54:16.838Z,6.90
2023-01-26T10:55:21.673Z,6.77
2023-01-26T10:56:23.117Z,6.00
2023-01-26T10:57:28.567Z,5.80
2023-01-26T10:58:42.683Z,5.43
2023-01-26T10:59:53.157Z,5.80
2023-01-26T11:00:57.638Z,6.57
2023-01-26T11:02:00.623Z,5.50
2023-01-26T11:03:16.237Z,5.80
2023-01-26T11:04:17.662Z,5.63
2023-01-26T11:05:23.229Z,5.50
2023-01-26T11:06:27.493Z,5.40
2023-01-26T11:07:31.918Z,4.77
2023-01-26T11:08:37.502Z,5.80
2023-01-26T11:09:38.834Z,5.70
2023-01-26T11:10:50.998Z,5.70
2023-01-26T11:12:15.592Z,5.70
2023-01-26T11:13:19.243Z,6.13
2023-01-26T11:14:20.606Z,6.30
2023-01-26T11:15:23.616Z,6.53
2023-01-26T11:16:25.220Z,6.70
2023-01-26T11:17:30.782Z,5.40
2023-01-26T11:18:34.992Z,5.93
2023-01-26T11:19:56.300Z,5.07
2023-01-26T11:21:09.990Z,4.90
2023-01-26T11:22:37.359Z,4.80
2023-01-26T11:23:43.509Z,5.00
2023-01-26T11:24:55.076Z,5.97
2023-01-26T11:26:15.092Z,6.43
2023-01-26T11:27:28.287Z,5.20
2023-01-26T11:28:41.866Z,5.30
2023-01-26T11:30:12.600Z,5.00
2023-01-26T11:31:46.109Z,5.37
2023-01-26T11:33:10.827Z,5.17
2023-01-26T11:34:24.410Z,5.10
2023-01-26T11:35:28.834Z,5.07
2023-01-26T11:36:34.475Z,4.97
2023-01-26T11:37:49.721Z,5.60
2023-01-26T11:39:12.761Z,5.23
2023-01-26T11:40:17.301Z,6.30
2023-01-26T11:41:53.988Z,5.57
2023-01-26T11:42:58.138Z,5.90
2023-01-26T11:44:17.907Z,5.30
2023-01-26T11:45:25.138Z,5.90
2023-01-26T11:46:41.626Z,6.13
2023-01-26T11:47:43.014Z,6.47
2023-01-26T11:49:03.186Z,6.27
2023-01-26T11:50:10.822Z,6.50
2023-01-26T11:51:17.996Z,6.13
2023-01-26T11:52:30.321Z,7.07
2023-01-26T11:53:31.583Z,7.27
2023-01-26T11:54:41.922Z,6.43
2023-01-26T11:55:43.219Z,6.63
2023-01-26T11:56:44.816Z,7.37
2023-01-26T11:57:53.008Z,6.77
2023-01-26T11:59:03.416Z,6.77
2023-01-26T12:00:29.393Z,7.00
2023-01-26T12:01:38.270Z,6.70
2023-01-26T12:02:39.946Z,7.27
2023-01-26T12:03:44.094Z,7.20
2023-01-26T12:04:46.835Z,12.00
2023-01-26T12:05:50.092Z,9.80
2023-01-26T12:06:55.469Z,7.53
2023-01-26T12:08:06.070Z,6.80
2023-01-26T12:09:18.574Z,7.17
2023-01-26T12:10:22.867Z,6.97
2023-01-26T12:11:28.469Z,7.10
2023-01-26T12:12:32.906Z,5.90
2023-01-26T12:13:42.718Z,5.30
2023-01-26T12:14:47.035Z,5.43
2023-01-26T12:15:51.829Z,5.37
2023-01-26T12:17:15.551Z,6.40
2023-01-26T12:18:29.844Z,6.27
2023-01-26T12:20:00.131Z,5.40
2023-01-26T12:21:05.766Z,6.50
2023-01-26T12:22:15.943Z,6.33
2023-01-26T12:23:19.868Z,5.77
2023-01-26T12:25:08.266Z,6.83
2023-01-26T12:25:52.848Z,6.63
2023-01-26T12:26:54.451Z,6.80
2023-01-26T12:28:04.329Z,7.47
2023-01-26T12:29:14.770Z,7.50
2023-01-26T12:30:30.055Z,7.70
2023-01-26T12:31:37.187Z,6.90
2023-01-26T12:32:38.622Z,6.97
2023-01-26T12:33:40.223Z,6.10
2023-01-26T12:34:41.608Z,7.07
2023-01-26T12:35:54.917Z,6.57
2023-01-26T12:36:59.274Z,6.13
2023-01-26T12:38:17.630Z,5.83
2023-01-26T12:39:28.954Z,6.33
2023-01-26T12:40:56.646Z,5.80
2023-01-26T12:42:17.059Z,6.43
2023-01-26T12:43:18.369Z,6.63
2023-01-26T12:44:38.556Z,5.90
2023-01-26T12:45:42.473Z,5.93
2023-01-26T12:46:47.496Z,5.53
2023-01-26T12:47:52.031Z,6.73
2023-01-26T12:49:01.925Z,6.67
2023-01-26T12:50:09.858Z,7.23
2023-01-26T12:51:15.034Z,7.13
2023-01-26T12:52:23.557Z,7.23
2023-01-26T12:53:30.287Z,6.33
2023-01-26T12:54:36.719Z,6.30
2023-01-26T12:55:41.026Z,6.40
2023-01-26T12:56:44.835Z,6.43
2023-01-26T12:57:50.052Z,5.97
2023-01-26T12:58:53.162Z,5.93
2023-01-26T13:00:01.382Z,5.87
2023-01-26T13:01:08.733Z,6.30
2023-01-26T13:02:30.515Z,5.90
2023-01-26T13:04:01.328Z,5.93
2023-01-26T13:05:04.050Z,6.70
2023-01-26T13:06:14.479Z,6.60
2023-01-26T13:07:32.868Z,6.83
2023-01-26T13:08:34.274Z,6.23
2023-01-26T13:09:35.626Z,6.37
2023-01-26T13:10:49.367Z,6.30
2023-01-26T13:11:54.786Z,6.87
2023-01-26T13:13:22.017Z,7.17
2023-01-26T13:14:24.806Z,10.53
2023-01-26T13:15:27.720Z,7.77
2023-01-26T13:16:28.995Z,7.33
2023-01-26T13:17:50.730Z,7.37
2023-01-26T13:18:55.809Z,7.10
2023-01-26T13:20:00.316Z,8.20
2023-01-26T13:21:01.753Z,7.80
2023-01-26T13:22:03.229Z,7.67
2023-01-26T13:23:24.533Z,7.90
2023-01-26T13:24:25.952Z,7.90
2023-01-26T13:25:31.843Z,9.03
2023-01-26T13:26:33.132Z,9.20
2023-01-26T13:27:37.231Z,8.97
2023-01-26T13:28:38.598Z,8.80
2023-01-26T13:29:53.675Z,9.73
2023-01-26T13:31:03.697Z,9.20
2023-01-26T13:32:14.141Z,9.50
2023-01-26T13:33:17.579Z,9.47
2023-01-26T13:34:39.587Z,10.23
2023-01-26T13:35:41.066Z,10.70
2023-01-26T13:36:45.324Z,10.13
2023-01-26T13:37:55.014Z,9.30
2023-01-26T13:38:59.998Z,10.57
2023-01-26T13:40:24.620Z,10.60
2023-01-26T13:41:26.029Z,10.20
2023-01-26T13:42:32.554Z,10.60
2023-01-26T13:43:36.703Z,10.97
2023-01-26T13:44:40.234Z,10.70
2023-01-26T13:45:41.774Z,10.87
2023-01-26T13:46:45.379Z,11.50
2023-01-26T13:47:48.983Z,10.73
2023-01-26T13:48:51.624Z,11.07
2023-01-26T13:49:53.221Z,10.33
2023-01-26T13:50:59.338Z,11.60
2023-01-26T13:52:00.838Z,11.37
2023-01-26T13:53:02.237Z,11.40
2023-01-26T13:54:04.928Z,11.57
2023-01-26T13:55:12.807Z,10.77
2023-01-26T13:56:20.714Z,11.33
2023-01-26T13:57:23.713Z,11.07
2023-01-26T13:58:25.425Z,10.80
2023-01-26T13:59:26.768Z,10.33
2023-01-26T14:00:28.098Z,12.63
2023-01-26T14:01:31.722Z,12.90
2023-01-26T14:02:34.953Z,12.23
2023-01-26T14:03:36.349Z,12.47
2023-01-26T14:04:37.772Z,12.60
2023-01-26T14:05:40.034Z,11.73
2023-01-26T14:06:42.346Z,11.73
2023-01-26T14:07:44.250Z,11.67
2023-01-26T14:08:51.416Z,11.60
2023-01-26T14:09:53.813Z,10.87
2023-01-26T14:10:55.377Z,11.33
2023-01-26T14:12:01.797Z,11.23
2023-01-26T14:13:04.126Z,12.07
2023-01-26T14:14:06.239Z,11.70
2023-01-26T14:15:08.229Z,12.30
2023-01-26T14:16:22.585Z,12.30
2023-01-26T14:17:26.413Z,11.57
2023-01-26T14:18:27.976Z,11.70
2023-01-26T14:19:29.790Z,11.13